createdAt,value
2022-12-12T00:01:23.055Z,21.67
2022-12-12T00:03:50.212Z,22.47
2022-12-12T00:06:17.111Z,19.57
2022-12-12T00:08:43.998Z,19.70
2022-12-12T00:11:10.873Z,19.90
2022-12-12T00:13:37.730Z,20.63
2022-12-12T00:16:05.796Z,20.83
2022-12-12T00:18:32.531Z,20.03
2022-12-12T00:20:59.554Z,22.37
2022-12-12T00:23:26.791Z,22.33
2022-12-12T00:25:56.379Z,21.07
2022-12-12T00:28:24.090Z,20.30
2022-12-12T00:30:50.837Z,22.30
2022-12-12T00:33:17.794Z,21.80
2022-12-12T00:35:45.212Z,18.97
2022-12-12T00:38:11.872Z,20.50
2022-12-12T00:40:38.594Z,20.97
2022-12-12T00:43:05.244Z,21.87
2022-12-12T00:45:31.859Z,21.90
2022-12-12T00:47:58.463Z,22.43
2022-12-12T00:50:25.168Z,21.63
2022-12-12T00:52:51.795Z,26.07
2022-12-12T00:55:18.482Z,20.80
2022-12-12T00:57:45.114Z,20.50
2022-12-12T01:00:19.925Z,20.30
2022-12-12T01:02:47.121Z,21.60
2022-12-12T01:05:14.607Z,20.47
2022-12-12T01:07:41.744Z,21.37
2022-12-12T01:10:12.372Z,20.67
2022-12-12T01:12:39.310Z,21.43
2022-12-12T01:15:13.480Z,30.40
2022-12-12T01:17:40.340Z,19.13
2022-12-12T01:20:15.340Z,21.07
2022-12-12T01:22:41.977Z,22.83
2022-12-12T01:25:10.321Z,21.87
2022-12-12T01:27:37.313Z,20.50
2022-12-12T01:30:05.836Z,20.50
2022-12-12T01:32:32.502Z,21.83
2022-12-12T01:34:59.146Z,21.27
2022-12-12T01:37:25.858Z,22.67
2022-12-12T01:39:52.422Z,24.77
2022-12-12T01:42:19.700Z,22.00
2022-12-12T01:44:51.695Z,22.63
2022-12-12T01:47:20.856Z,22.90
2022-12-12T01:49:54.351Z,21.53
2022-12-12T01:52:26.638Z,21.57
2022-12-12T01:54:58.405Z,21.13
2022-12-12T01:57:32.022Z,20.97
2022-12-12T02:00:01.501Z,21.20
2022-12-12T02:02:29.622Z,22.00
2022-12-12T02:04:57.775Z,21.37
2022-12-12T02:07:24.360Z,24.00
2022-12-12T02:09:51.528Z,23.80
2022-12-12T02:12:18.166Z,24.20
2022-12-12T02:14:52.313Z,22.33
2022-12-12T02:17:54.016Z,26.33
2022-12-12T02:20:40.257Z,23.97
2022-12-12T02:23:28.558Z,22.70
2022-12-12T02:26:12.943Z,22.67
2022-12-12T02:29:17.252Z,25.67
2022-12-12T02:31:56.815Z,22.60
2022-12-12T02:34:38.331Z,27.10
2022-12-12T02:37:23.388Z,25.67
2022-12-12T02:40:22.614Z,23.50
2022-12-12T02:43:02.839Z,22.90
2022-12-12T02:46:18.416Z,25.37
2022-12-12T02:49:07.259Z,22.93
2022-12-12T02:51:35.925Z,25.67
2022-12-12T02:54:05.798Z,22.80
2022-12-12T02:56:41.610Z,24.07
2022-12-12T02:59:09.294Z,23.73
2022-12-12T03:01:50.328Z,26.50
2022-12-12T03:04:48.342Z,24.20
2022-12-12T03:08:02.141Z,24.83
2022-12-12T03:10:37.553Z,26.23
2022-12-12T03:13:39.383Z,25.47
2022-12-12T03:16:29.446Z,23.60
2022-12-12T03:19:07.908Z,24.77
2022-12-12T03:21:52.809Z,26.47
2022-12-12T03:24:39.946Z,25.10
2022-12-12T03:27:24.040Z,26.00
2022-12-12T03:30:02.062Z,23.90
2022-12-12T03:32:35.066Z,23.73
2022-12-12T03:35:14.523Z,24.87
2022-12-12T03:37:49.190Z,24.03
2022-12-12T03:40:29.497Z,25.43
2022-12-12T03:43:17.846Z,25.90
2022-12-12T03:45:48.104Z,24.97
2022-12-12T03:48:33.276Z,27.17
2022-12-12T03:51:18.705Z,25.20
2022-12-12T03:53:55.068Z,24.47
2022-12-12T03:56:39.767Z,26.33
2022-12-12T03:59:11.817Z,24.67
2022-12-12T04:01:50.194Z,26.53
2022-12-12T04:04:21.230Z,27.43
2022-12-12T04:06:59.634Z,26.90
2022-12-12T04:09:46.359Z,27.63
2022-12-12T04:12:54.749Z,30.33
2022-12-12T04:15:48.087Z,28.47
2022-12-12T04:18:40.500Z,27.60
2022-12-12T04:21:38.699Z,27.00
2022-12-12T04:24:24.186Z,27.77
2022-12-12T04:27:03.640Z,25.93
2022-12-12T04:29:47.123Z,25.90
2022-12-12T04:32:35.602Z,25.77
2022-12-12T04:35:07.539Z,26.67
2022-12-12T04:37:39.758Z,26.93
2022-12-12T04:40:09.844Z,27.73
2022-12-12T04:42:42.220Z,27.00
2022-12-12T04:45:14.317Z,26.73
2022-12-12T04:47:45.446Z,26.20
2022-12-12T04:50:13.346Z,28.57
2022-12-12T04:52:41.623Z,26.50
2022-12-12T04:55:21.201Z,25.77
2022-12-12T04:57:54.678Z,26.83
2022-12-12T05:00:23.524Z,27.77
2022-12-12T05:03:02.049Z,25.83
2022-12-12T05:05:35.057Z,25.37
2022-12-12T05:08:14.718Z,27.17
2022-12-12T05:10:46.382Z,25.73
2022-12-12T05:13:18.232Z,26.30
2022-12-12T05:15:46.329Z,27.20
2022-12-12T05:18:13.017Z,27.87
2022-12-12T05:20:39.898Z,27.17
2022-12-12T05:23:06.702Z,26.80
2022-12-12T05:25:33.416Z,24.80
2022-12-12T05:28:00.119Z,27.47
2022-12-12T05:30:27.229Z,27.87
2022-12-12T05:32:54.198Z,26.97
2022-12-12T05:35:21.056Z,27.63
2022-12-12T05:37:51.624Z,29.23
2022-12-12T05:40:20.003Z,25.00
2022-12-12T05:42:46.619Z,28.67
2022-12-12T05:45:13.668Z,24.73
2022-12-12T05:47:40.556Z,26.53
2022-12-12T05:50:07.575Z,28.90
2022-12-12T05:52:34.501Z,28.37
2022-12-12T05:55:01.218Z,30.10
2022-12-12T05:57:27.823Z,28.47
2022-12-12T05:59:54.437Z,27.50
2022-12-12T06:02:21.084Z,30.43
2022-12-12T06:04:47.710Z,27.90
2022-12-12T06:07:14.268Z,29.73
2022-12-12T06:09:40.899Z,29.73
2022-12-12T06:12:07.961Z,29.97
2022-12-12T06:14:34.637Z,29.17
2022-12-12T06:17:01.284Z,30.27
2022-12-12T06:19:27.892Z,28.27
2022-12-12T06:21:54.519Z,29.30
2022-12-12T06:24:23.448Z,30.80
2022-12-12T06:26:50.112Z,28.90
2022-12-12T06:29:16.882Z,28.20
2022-12-12T06:31:43.564Z,30.10
2022-12-12T06:34:10.305Z,27.27
2022-12-12T06:36:37.073Z,30.13
2022-12-12T06:39:04.004Z,29.63
2022-12-12T06:41:31.875Z,27.30
2022-12-12T06:43:58.519Z,27.17
2022-12-12T06:46:27.544Z,28.73
2022-12-12T06:48:55.866Z,28.87
2022-12-12T06:51:25.140Z,30.50
2022-12-12T06:53:52.483Z,26.73
2022-12-12T06:56:22.508Z,29.40
2022-12-12T06:58:49.359Z,27.63
2022-12-12T07:01:22.047Z,26.23
2022-12-12T07:03:50.227Z,30.37
2022-12-12T07:06:18.050Z,33.27
2022-12-12T07:08:44.764Z,29.10
2022-12-12T07:11:17.199Z,29.03
2022-12-12T07:13:44.088Z,33.40
2022-12-12T07:16:10.929Z,28.70
2022-12-12T07:18:37.681Z,30.90
2022-12-12T07:21:09.825Z,30.17
2022-12-12T07:23:37.192Z,32.03
2022-12-12T07:26:08.109Z,31.47
2022-12-12T07:28:35.401Z,32.07
2022-12-12T07:31:06.105Z,29.47
2022-12-12T07:33:42.686Z,33.33
2022-12-12T07:36:10.791Z,32.93
2022-12-12T07:38:37.733Z,33.47
2022-12-12T07:41:06.146Z,32.83
2022-12-12T07:43:39.825Z,33.23
2022-12-12T07:46:11.954Z,32.53
2022-12-12T07:48:38.651Z,30.90
2022-12-12T07:51:05.420Z,32.20
2022-12-12T07:53:31.997Z,32.80
2022-12-12T07:55:58.753Z,30.07
2022-12-12T07:58:25.622Z,34.63
2022-12-12T08:00:52.291Z,31.33
2022-12-12T08:03:18.870Z,35.57
2022-12-12T08:05:45.507Z,31.93
2022-12-12T08:08:12.190Z,32.97
2022-12-12T08:10:40.476Z,29.17
2022-12-12T08:13:07.327Z,30.13
2022-12-12T08:15:34.499Z,31.67
2022-12-12T08:18:01.616Z,31.23
2022-12-12T08:20:28.435Z,31.83
2022-12-12T08:22:55.053Z,27.00
2022-12-12T08:25:21.784Z,29.20
2022-12-12T08:27:48.402Z,29.97
2022-12-12T08:30:15.012Z,30.77
2022-12-12T08:32:41.639Z,29.83
2022-12-12T08:35:08.866Z,30.93
2022-12-12T08:37:35.649Z,31.30
2022-12-12T08:40:03.633Z,29.77
2022-12-12T08:42:30.372Z,31.83
2022-12-12T08:44:57.115Z,28.13
2022-12-12T08:47:23.767Z,30.03
2022-12-12T08:49:50.387Z,31.27
2022-12-12T08:52:17.060Z,29.33
2022-12-12T08:54:44.091Z,33.37
2022-12-12T08:57:10.853Z,27.87
2022-12-12T08:59:37.471Z,28.77
2022-12-12T09:02:04.210Z,28.07
2022-12-12T09:04:31.060Z,28.70
2022-12-12T09:06:57.727Z,28.17
2022-12-12T09:09:24.897Z,27.60
2022-12-12T09:11:51.657Z,27.93
2022-12-12T09:14:18.303Z,27.33
2022-12-12T09:16:45.421Z,27.00
2022-12-12T09:19:12.100Z,27.73
2022-12-12T09:21:38.711Z,26.47
2022-12-12T09:24:05.633Z,26.07
2022-12-12T09:26:33.854Z,27.07
2022-12-12T09:29:00.554Z,27.57
2022-12-12T09:31:27.238Z,29.07
2022-12-12T09:33:54.103Z,26.53
2022-12-12T09:36:21.346Z,26.17
2022-12-12T09:38:47.983Z,25.73
2022-12-12T09:41:19.272Z,27.23
2022-12-12T09:44:00.364Z,27.13
2022-12-12T09:46:45.479Z,27.13
2022-12-12T09:49:43.216Z,25.43
2022-12-12T09:52:17.486Z,27.63
2022-12-12T09:54:44.965Z,29.07
2022-12-12T09:57:27.780Z,26.00
2022-12-12T10:00:06.152Z,26.33
2022-12-12T10:03:03.795Z,24.53
2022-12-12T10:06:28.694Z,24.87
2022-12-12T10:09:13.853Z,23.50
2022-12-12T10:11:50.493Z,22.97
2022-12-12T10:14:21.267Z,21.57
2022-12-12T10:16:53.909Z,22.43
2022-12-12T10:19:27.445Z,24.67
2022-12-12T10:22:00.296Z,31.13
2022-12-12T10:24:59.635Z,26.83
2022-12-12T10:27:26.268Z,29.27
2022-12-12T10:29:54.023Z,26.00
2022-12-12T10:32:28.783Z,36.20
2022-12-12T10:35:03.363Z,29.73
2022-12-12T10:37:55.406Z,28.07
2022-12-12T10:40:40.690Z,30.27
2022-12-12T10:43:22.461Z,34.70
2022-12-12T10:46:37.726Z,33.10
2022-12-12T10:49:19.189Z,27.47
2022-12-12T10:51:48.364Z,30.53
2022-12-12T10:54:18.610Z,27.33
2022-12-12T10:57:07.487Z,28.67
2022-12-12T10:59:47.098Z,28.17
2022-12-12T11:02:22.817Z,24.50
2022-12-12T11:04:49.468Z,26.57
2022-12-12T11:07:23.235Z,26.67
2022-12-12T11:09:49.813Z,24.87
2022-12-12T11:12:16.790Z,24.90
2022-12-12T11:14:48.203Z,26.30
2022-12-12T11:17:25.470Z,26.53
2022-12-12T11:19:56.043Z,28.10
2022-12-12T11:22:23.601Z,27.33
2022-12-12T11:24:50.968Z,27.20
2022-12-12T11:27:22.885Z,30.53
2022-12-12T11:29:53.540Z,29.67
2022-12-12T11:32:30.795Z,26.20
2022-12-12T11:35:01.548Z,29.30
2022-12-12T11:37:37.832Z,30.43
2022-12-12T11:40:05.984Z,26.43
2022-12-12T11:42:34.300Z,26.63
2022-12-12T11:45:09.797Z,26.83
2022-12-12T11:47:41.506Z,26.10
2022-12-12T11:50:21.915Z,27.13
2022-12-12T11:52:51.001Z,25.40
2022-12-12T11:55:24.951Z,25.23
2022-12-12T11:58:05.018Z,26.90
2022-12-12T12:01:06.992Z,27.27
2022-12-12T12:04:19.827Z,25.40
2022-12-12T12:07:29.111Z,25.97
2022-12-12T12:10:10.732Z,29.67
2022-12-12T12:13:16.700Z,34.77
2022-12-12T12:16:25.720Z,27.70
2022-12-12T12:19:23.207Z,27.57
2022-12-12T12:21:55.596Z,27.37
2022-12-12T12:25:13.368Z,27.20
2022-12-12T12:28:05.164Z,29.10
2022-12-12T12:31:10.352Z,32.13
2022-12-12T12:34:04.560Z,29.50
2022-12-12T12:36:57.649Z,28.27
2022-12-12T12:39:55.794Z,25.23
2022-12-12T12:42:34.703Z,27.90
2022-12-12T12:45:16.964Z,24.43
2022-12-12T12:47:52.554Z,26.03
2022-12-12T12:50:29.291Z,30.87
2022-12-12T12:53:18.326Z,26.80
2022-12-12T12:55:50.862Z,26.20
2022-12-12T12:58:29.229Z,26.00
2022-12-12T13:01:02.455Z,25.13
2022-12-12T13:03:37.393Z,23.73
2022-12-12T13:06:12.589Z,27.97
2022-12-12T13:08:47.083Z,25.17
2022-12-12T13:11:33.188Z,25.57
2022-12-12T13:14:13.845Z,24.63
2022-12-12T13:16:41.873Z,28.00
2022-12-12T13:19:21.383Z,25.23
2022-12-12T13:22:00.702Z,29.97
2022-12-12T13:24:58.100Z,25.57
2022-12-12T13:27:34.541Z,23.83
2022-12-12T13:30:40.243Z,25.07
2022-12-12T13:33:26.614Z,25.17
2022-12-12T13:35:58.165Z,26.27
2022-12-12T13:38:30.701Z,30.00
2022-12-12T13:41:00.255Z,24.70
2022-12-12T13:43:33.146Z,27.83
2022-12-12T13:46:31.686Z,22.97
2022-12-12T13:49:07.445Z,24.17
2022-12-12T13:51:37.341Z,23.57
2022-12-12T13:54:12.130Z,22.53
2022-12-12T13:56:51.793Z,20.60
2022-12-12T13:59:27.376Z,22.43
2022-12-12T14:02:02.843Z,22.40
2022-12-12T14:04:41.472Z,20.17
2022-12-12T14:07:25.476Z,26.37
2022-12-12T14:09:55.820Z,22.10
2022-12-12T14:12:32.052Z,23.40
2022-12-12T14:15:05.953Z,23.77
2022-12-12T14:17:42.265Z,24.40
2022-12-12T14:20:34.632Z,25.33
2022-12-12T14:23:12.560Z,24.73
2022-12-12T14:25:41.174Z,21.80
2022-12-12T14:28:21.617Z,24.73
2022-12-12T14:30:55.920Z,23.93
2022-12-12T14:33:45.230Z,21.00
2022-12-12T14:36:36.929Z,23.83
2022-12-12T14:39:18.386Z,26.60
2022-12-12T14:41:46.721Z,25.03
2022-12-12T14:44:35.626Z,22.30
2022-12-12T14:47:08.387Z,22.83
2022-12-12T14:49:35.056Z,32.07
2022-12-12T14:52:01.939Z,28.10
2022-12-12T14:54:28.687Z,28.30
2022-12-12T14:57:01.293Z,29.20
2022-12-12T14:59:34.125Z,27.63
2022-12-12T15:02:26.047Z,27.90
2022-12-12T15:05:04.129Z,30.10
2022-12-12T15:07:34.029Z,29.77
2022-12-12T15:10:01.049Z,27.63
2022-12-12T15:12:44.143Z,28.07
2022-12-12T15:15:27.535Z,28.77
2022-12-12T15:17:58.122Z,34.33
2022-12-12T15:20:26.970Z,32.20
2022-12-12T15:23:18.119Z,30.30
2022-12-12T15:25:53.896Z,30.03
2022-12-12T15:28:22.124Z,31.60
2022-12-12T15:30:52.184Z,32.13
2022-12-12T15:33:20.340Z,34.27
2022-12-12T15:36:01.168Z,31.57
2022-12-12T15:38:29.563Z,30.67
2022-12-12T15:40:58.733Z,31.73
2022-12-12T15:43:27.991Z,33.13
2022-12-12T15:46:13.656Z,33.43
2022-12-12T15:48:45.016Z,33.17
2022-12-12T15:51:13.147Z,31.30
2022-12-12T15:53:49.019Z,31.60
2022-12-12T15:56:25.104Z,32.77
2022-12-12T15:59:12.829Z,32.67
2022-12-12T16:01:41.032Z,30.13
2022-12-12T16:04:10.660Z,33.87
2022-12-12T16:06:43.190Z,33.90
2022-12-12T16:09:23.214Z,30.83
2022-12-12T16:11:57.909Z,34.23
2022-12-12T16:14:41.624Z,30.63
2022-12-12T16:17:19.307Z,35.23
2022-12-12T16:19:58.125Z,28.40
2022-12-12T16:22:47.497Z,34.77
2022-12-12T16:25:26.487Z,33.90
2022-12-12T16:28:23.172Z,31.37
2022-12-12T16:30:59.063Z,31.80
2022-12-12T16:33:37.549Z,34.20
2022-12-12T16:36:07.554Z,30.93
2022-12-12T16:38:35.421Z,33.20
2022-12-12T16:41:07.893Z,31.50
2022-12-12T16:43:35.095Z,31.97
2022-12-12T16:46:01.773Z,32.77
2022-12-12T16:48:36.522Z,32.17
2022-12-12T16:51:08.635Z,31.23
2022-12-12T16:53:36.728Z,32.90
2022-12-12T16:56:03.663Z,34.33
2022-12-12T16:58:32.022Z,32.17
2022-12-12T17:01:01.574Z,33.90
2022-12-12T17:03:29.791Z,34.07
2022-12-12T17:05:56.425Z,34.10
2022-12-12T17:08:23.162Z,33.50
2022-12-12T17:10:53.072Z,34.60
2022-12-12T17:13:37.512Z,34.57
2022-12-12T17:16:04.336Z,33.73
2022-12-12T17:18:30.973Z,35.07
2022-12-12T17:20:57.569Z,34.60
2022-12-12T17:23:30.466Z,30.50
2022-12-12T17:26:03.652Z,35.77
2022-12-12T17:28:32.264Z,31.30
2022-12-12T17:30:59.089Z,36.87
2022-12-12T17:33:26.169Z,35.87
2022-12-12T17:36:01.032Z,30.90
2022-12-12T17:38:28.157Z,38.13
2022-12-12T17:40:56.671Z,37.50
2022-12-12T17:43:24.607Z,32.17
2022-12-12T17:46:03.439Z,34.30
2022-12-12T17:48:35.214Z,35.77
2022-12-12T17:51:06.674Z,35.23
2022-12-12T17:53:40.617Z,35.47
2022-12-12T17:56:09.196Z,32.90
2022-12-12T17:58:38.073Z,33.50
2022-12-12T18:01:19.348Z,31.23
2022-12-12T18:03:46.943Z,31.63
2022-12-12T18:06:14.851Z,35.87
2022-12-12T18:08:42.533Z,33.47
2022-12-12T18:11:11.593Z,33.17
2022-12-12T18:13:39.393Z,36.30
2022-12-12T18:16:08.224Z,34.07
2022-12-12T18:18:35.086Z,34.27
2022-12-12T18:21:12.862Z,37.03
2022-12-12T18:23:43.007Z,32.97
2022-12-12T18:26:18.584Z,35.77
2022-12-12T18:28:49.747Z,35.97
2022-12-12T18:31:16.600Z,38.20
2022-12-12T18:33:43.440Z,36.30
2022-12-12T18:36:14.272Z,35.87
2022-12-12T18:38:45.871Z,34.67
2022-12-12T18:41:14.736Z,37.60
2022-12-12T18:43:41.479Z,35.70
2022-12-12T18:46:14.208Z,38.47
2022-12-12T18:48:42.917Z,37.63
2022-12-12T18:51:14.455Z,35.23
2022-12-12T18:53:41.665Z,34.70
2022-12-12T18:56:13.918Z,37.00
2022-12-12T18:58:42.377Z,36.10
2022-12-12T19:01:12.700Z,34.63
2022-12-12T19:03:47.192Z,38.27
2022-12-12T19:06:16.604Z,36.13
2022-12-12T19:08:43.676Z,37.67
2022-12-12T19:11:11.453Z,36.93
2022-12-12T19:13:38.111Z,37.27
2022-12-12T19:16:06.740Z,36.77
2022-12-12T19:18:34.954Z,37.67
2022-12-12T19:21:15.185Z,36.47
2022-12-12T19:23:45.371Z,37.47
2022-12-12T19:26:35.383Z,36.77
2022-12-12T19:29:05.098Z,38.00
2022-12-12T19:31:34.374Z,37.37
2022-12-12T19:34:02.384Z,44.30
2022-12-12T19:36:29.913Z,37.10
2022-12-12T19:38:58.635Z,35.77
2022-12-12T19:41:25.570Z,39.37
2022-12-12T19:43:53.437Z,36.67
2022-12-12T19:46:23.629Z,38.93
2022-12-12T19:48:54.706Z,37.90
2022-12-12T19:51:25.564Z,40.53
2022-12-12T19:53:56.198Z,39.40
2022-12-12T19:56:26.395Z,36.33
2022-12-12T19:58:53.586Z,39.90
2022-12-12T20:01:23.307Z,38.40
2022-12-12T20:03:54.918Z,39.10
2022-12-12T20:06:22.656Z,38.30
2022-12-12T20:08:52.465Z,34.93
2022-12-12T20:11:23.519Z,35.53
2022-12-12T20:13:52.719Z,37.20
2022-12-12T20:16:22.482Z,36.97
2022-12-12T20:18:50.419Z,35.00
2022-12-12T20:21:43.360Z,35.93
2022-12-12T20:24:06.735Z,37.97
2022-12-12T20:26:34.141Z,38.27
2022-12-12T20:29:01.087Z,39.17
2022-12-12T20:31:31.051Z,37.83
2022-12-12T20:33:59.026Z,38.90
2022-12-12T20:36:28.506Z,38.30
2022-12-12T20:38:56.656Z,39.90
2022-12-12T20:41:27.826Z,39.63
2022-12-12T20:43:55.888Z,40.93
2022-12-12T20:46:29.829Z,40.30
2022-12-12T20:48:58.591Z,42.73
2022-12-12T20:54:22.171Z,40.87
2022-12-12T20:56:49.289Z,44.67
2022-12-12T20:59:18.381Z,41.73
2022-12-12T21:01:46.991Z,42.10
2022-12-12T21:04:24.052Z,43.47
2022-12-12T21:06:51.546Z,44.73
2022-12-12T21:09:24.277Z,43.47
2022-12-12T21:11:57.688Z,40.83
2022-12-12T21:14:30.453Z,41.07
2022-12-12T21:16:57.058Z,44.57
2022-12-12T21:19:23.977Z,42.23
2022-12-12T21:21:51.465Z,42.17
2022-12-12T21:24:18.631Z,44.13
2022-12-12T21:26:45.942Z,46.70
2022-12-12T21:29:12.755Z,45.67
2022-12-12T21:31:50.353Z,44.97
2022-12-12T21:34:20.267Z,44.40
2022-12-12T21:36:49.227Z,42.03
2022-12-12T21:39:15.825Z,43.83
2022-12-12T21:41:43.801Z,44.23
2022-12-12T21:44:10.605Z,48.37
2022-12-12T21:46:39.178Z,46.37
2022-12-12T21:49:26.458Z,49.13
2022-12-12T21:51:55.726Z,44.43
2022-12-12T21:54:22.927Z,44.67
2022-12-12T21:56:49.805Z,36.13
2022-12-12T21:59:16.452Z,41.00
2022-12-12T22:01:43.227Z,38.63
2022-12-12T22:04:12.269Z,38.17
2022-12-12T22:06:39.299Z,39.43
2022-12-12T22:09:08.664Z,39.57
2022-12-12T22:11:46.890Z,39.87
2022-12-12T22:14:18.600Z,42.40
2022-12-12T22:16:45.328Z,40.50
2022-12-12T22:19:13.715Z,40.47
2022-12-12T22:21:40.738Z,38.77
2022-12-12T22:24:07.738Z,37.07
2022-12-12T22:26:37.406Z,38.93
2022-12-12T22:29:07.201Z,37.67
2022-12-12T22:31:37.230Z,37.83
2022-12-12T22:34:07.082Z,38.17
2022-12-12T22:36:36.406Z,37.07
2022-12-12T22:39:04.760Z,36.10
2022-12-12T22:41:31.544Z,35.73
2022-12-12T22:44:01.029Z,37.67
2022-12-12T22:46:28.164Z,40.20
2022-12-12T22:48:56.864Z,39.77
2022-12-12T22:51:33.556Z,37.40
2022-12-12T22:54:02.608Z,34.80
2022-12-12T22:56:30.556Z,42.30
2022-12-12T22:58:57.260Z,41.07
2022-12-12T23:01:27.211Z,37.77
2022-12-12T23:03:54.387Z,38.57
2022-12-12T23:06:25.613Z,37.10
2022-12-12T23:08:58.064Z,38.23
2022-12-12T23:11:27.473Z,38.40
2022-12-12T23:13:55.956Z,40.23
2022-12-12T23:16:27.527Z,36.40
2022-12-12T23:18:54.719Z,34.33
2022-12-12T23:21:23.031Z,35.80
2022-12-12T23:23:51.737Z,36.50
2022-12-12T23:26:20.731Z,34.03
2022-12-12T23:28:48.025Z,36.53
2022-12-12T23:31:30.108Z,35.03
2022-12-12T23:33:59.948Z,34.70
2022-12-12T23:36:27.447Z,36.40
2022-12-12T23:38:55.432Z,38.40
2022-12-12T23:41:22.362Z,34.43
2022-12-12T23:43:49.488Z,41.83
2022-12-12T23:46:28.312Z,34.90
2022-12-12T23:49:06.841Z,36.17
2022-12-12T23:51:39.468Z,40.97
2022-12-12T23:54:08.998Z,35.37
2022-12-12T23:56:36.970Z,40.10
2022-12-12T23:59:04.178Z,35.30
